createdAt,value
2022-12-27T00:01:20.801Z,26.40
2022-12-27T00:03:54.251Z,26.30
2022-12-27T00:06:28.295Z,28.40
2022-12-27T00:09:01.139Z,29.20
2022-12-27T00:11:34.134Z,26.30
2022-12-27T00:14:08.000Z,28.40
2022-12-27T00:16:41.580Z,28.80
2022-12-27T00:19:14.627Z,29.40
2022-12-27T00:21:47.339Z,28.60
2022-12-27T00:24:20.053Z,24.30
2022-12-27T00:26:53.228Z,27.40
2022-12-27T00:29:26.949Z,23.30
2022-12-27T00:31:59.816Z,23.10
2022-12-27T00:34:32.445Z,28.10
2022-12-27T00:37:05.064Z,25.50
2022-12-27T00:39:38.276Z,25.90
2022-12-27T00:42:10.816Z,27.50
2022-12-27T00:44:43.858Z,28.00
2022-12-27T00:47:16.570Z,26.50
2022-12-27T00:49:49.756Z,25.80
2022-12-27T00:52:22.702Z,29.40
2022-12-27T00:54:55.535Z,24.50
2022-12-27T00:57:28.525Z,25.40
2022-12-27T01:00:06.169Z,27.50
2022-12-27T01:02:43.775Z,28.40
2022-12-27T01:05:16.385Z,26.90
2022-12-27T01:07:49.367Z,23.20
2022-12-27T01:10:22.373Z,26.90
2022-12-27T01:12:55.074Z,24.60
2022-12-27T01:15:27.824Z,25.00
2022-12-27T01:18:00.703Z,27.40
2022-12-27T01:20:33.324Z,26.40
2022-12-27T01:23:06.269Z,28.40
2022-12-27T01:25:39.108Z,28.70
2022-12-27T01:28:12.205Z,27.70
2022-12-27T01:30:44.941Z,27.20
2022-12-27T01:33:17.783Z,28.60
2022-12-27T01:35:50.247Z,28.90
2022-12-27T01:38:23.009Z,27.50
2022-12-27T01:40:55.758Z,30.00
2022-12-27T01:43:47.583Z,26.10
2022-12-27T01:46:20.868Z,28.00
2022-12-27T01:48:53.879Z,26.70
2022-12-27T01:51:27.123Z,23.60
2022-12-27T01:54:00.146Z,25.40
2022-12-27T01:56:34.411Z,25.10
2022-12-27T01:59:11.783Z,26.40
2022-12-27T02:01:51.064Z,29.40
2022-12-27T02:04:28.246Z,30.10
2022-12-27T02:07:02.913Z,26.70
2022-12-27T02:09:59.233Z,28.60
2022-12-27T02:12:32.201Z,30.00
2022-12-27T02:15:05.675Z,28.40
2022-12-27T02:17:39.082Z,28.20
2022-12-27T02:20:19.667Z,28.30
2022-12-27T02:23:20.371Z,30.40
2022-12-27T02:26:05.047Z,28.70
2022-12-27T02:29:06.795Z,25.40
2022-12-27T02:31:44.051Z,22.50
2022-12-27T02:34:34.234Z,24.20
2022-12-27T02:37:12.665Z,26.70
2022-12-27T02:39:50.061Z,25.60
2022-12-27T02:42:41.712Z,26.30
2022-12-27T02:45:42.351Z,26.20
2022-12-27T02:48:35.899Z,28.90
2022-12-27T02:52:02.047Z,27.80
2022-12-27T02:54:48.121Z,28.30
2022-12-27T02:57:53.463Z,28.40
2022-12-27T03:00:46.631Z,29.90
2022-12-27T03:03:44.674Z,32.10
2022-12-27T03:06:36.027Z,31.90
2022-12-27T03:10:11.058Z,31.30
2022-12-27T03:13:11.878Z,34.20
2022-12-27T03:16:14.283Z,35.30
2022-12-27T03:19:02.743Z,30.20
2022-12-27T03:22:01.835Z,29.30
2022-12-27T03:24:58.563Z,27.70
2022-12-27T03:27:38.319Z,28.90
2022-12-27T03:30:32.880Z,29.00
2022-12-27T03:33:15.538Z,27.70
2022-12-27T03:36:19.139Z,28.80
2022-12-27T03:39:15.104Z,27.30
2022-12-27T03:42:18.843Z,29.60
2022-12-27T03:44:52.177Z,31.00
2022-12-27T03:47:50.069Z,30.70
2022-12-27T03:50:51.317Z,30.80
2022-12-27T03:53:40.523Z,29.30
2022-12-27T03:56:13.677Z,29.30
2022-12-27T03:58:46.918Z,31.60
2022-12-27T04:01:20.016Z,32.00
2022-12-27T04:03:52.877Z,29.80
2022-12-27T04:06:25.839Z,28.10
2022-12-27T04:09:16.927Z,28.00
2022-12-27T04:12:08.179Z,29.80
2022-12-27T04:14:59.136Z,29.30
2022-12-27T04:17:50.502Z,30.90
2022-12-27T04:20:41.413Z,33.20
2022-12-27T04:23:32.914Z,32.30
2022-12-27T04:26:23.828Z,28.90
2022-12-27T04:29:15.230Z,28.90
2022-12-27T04:32:05.999Z,29.80
2022-12-27T04:34:44.232Z,26.90
2022-12-27T04:37:20.492Z,29.90
2022-12-27T04:40:12.258Z,30.10
2022-12-27T04:43:04.344Z,29.00
2022-12-27T04:45:56.217Z,31.40
2022-12-27T04:48:50.123Z,30.90
2022-12-27T04:51:41.047Z,31.60
2022-12-27T04:54:43.195Z,28.50
2022-12-27T04:57:16.169Z,29.50
2022-12-27T05:00:08.463Z,31.60
2022-12-27T05:02:42.405Z,31.60
2022-12-27T05:05:16.062Z,39.20
2022-12-27T05:08:07.730Z,48.70
2022-12-27T05:10:59.442Z,57.60
2022-12-27T05:13:50.933Z,41.70
2022-12-27T05:16:23.716Z,37.90
2022-12-27T05:18:57.762Z,33.10
2022-12-27T05:21:30.569Z,36.60
2022-12-27T05:24:22.479Z,35.80
2022-12-27T05:26:58.658Z,35.70
2022-12-27T05:29:36.616Z,37.50
2022-12-27T05:32:13.084Z,33.20
2022-12-27T05:34:49.006Z,33.30
2022-12-27T05:37:21.668Z,31.10
2022-12-27T05:39:54.431Z,33.30
2022-12-27T05:42:27.063Z,32.30
2022-12-27T05:44:59.879Z,32.50
2022-12-27T05:47:32.904Z,31.80
2022-12-27T05:50:05.824Z,30.80
2022-12-27T05:52:41.153Z,33.90
2022-12-27T05:55:14.873Z,38.90
2022-12-27T05:57:47.900Z,34.20
2022-12-27T06:00:20.693Z,33.20
2022-12-27T06:02:53.297Z,33.20
2022-12-27T06:05:26.269Z,34.60
2022-12-27T06:07:59.247Z,38.70
2022-12-27T06:10:32.203Z,34.70
2022-12-27T06:13:06.025Z,41.60
2022-12-27T06:15:40.121Z,36.10
2022-12-27T06:18:13.201Z,36.10
2022-12-27T06:20:46.424Z,31.60
2022-12-27T06:23:19.220Z,32.50
2022-12-27T06:25:51.881Z,33.00
2022-12-27T06:28:24.635Z,35.40
2022-12-27T06:31:00.110Z,30.80
2022-12-27T06:33:33.776Z,32.90
2022-12-27T06:36:16.575Z,34.00
2022-12-27T06:38:50.601Z,32.50
2022-12-27T06:41:23.682Z,35.40
2022-12-27T06:44:00.231Z,34.50
2022-12-27T06:46:32.953Z,36.40
2022-12-27T06:49:05.955Z,36.00
2022-12-27T06:51:38.985Z,37.60
2022-12-27T06:54:11.749Z,36.50
2022-12-27T06:56:44.651Z,39.30
2022-12-27T06:59:18.044Z,37.60
2022-12-27T07:01:54.378Z,40.80
2022-12-27T07:04:27.392Z,44.50
2022-12-27T07:07:00.755Z,40.30
2022-12-27T07:09:34.233Z,41.10
2022-12-27T07:12:07.633Z,47.10
2022-12-27T07:14:41.059Z,47.00
2022-12-27T07:17:14.106Z,42.50
2022-12-27T07:19:48.606Z,44.30
2022-12-27T07:22:21.539Z,41.70
2022-12-27T07:24:55.183Z,42.70
2022-12-27T07:27:28.303Z,49.70
2022-12-27T07:30:01.384Z,45.40
2022-12-27T07:32:34.644Z,45.10
2022-12-27T07:35:07.590Z,47.90
2022-12-27T07:37:42.616Z,44.10
2022-12-27T07:40:15.313Z,43.50
2022-12-27T07:42:48.761Z,45.20
2022-12-27T07:45:21.672Z,47.70
2022-12-27T07:47:54.599Z,39.40
2022-12-27T07:50:27.485Z,37.10
2022-12-27T07:53:00.197Z,38.40
2022-12-27T07:55:33.338Z,37.60
2022-12-27T07:58:06.549Z,36.80
2022-12-27T08:00:39.452Z,36.00
2022-12-27T08:03:12.211Z,36.20
2022-12-27T08:05:54.215Z,37.70
2022-12-27T08:08:29.906Z,36.50
2022-12-27T08:11:05.646Z,38.20
2022-12-27T08:13:39.441Z,40.20
2022-12-27T08:16:24.962Z,37.70
2022-12-27T08:19:01.924Z,42.20
2022-12-27T08:21:39.269Z,40.00
2022-12-27T08:24:12.778Z,38.70
2022-12-27T08:26:45.908Z,38.20
2022-12-27T08:29:19.101Z,34.90
2022-12-27T08:31:52.378Z,36.10
2022-12-27T08:34:25.326Z,35.30
2022-12-27T08:36:58.252Z,35.90
2022-12-27T08:39:31.076Z,37.60
2022-12-27T08:42:03.977Z,39.80
2022-12-27T08:44:37.295Z,40.10
2022-12-27T08:47:10.690Z,39.00
2022-12-27T08:49:43.465Z,38.00
2022-12-27T08:52:16.223Z,37.10
2022-12-27T08:54:49.277Z,38.90
2022-12-27T08:57:22.242Z,36.30
2022-12-27T08:59:55.193Z,38.50
2022-12-27T09:02:28.122Z,39.60
2022-12-27T09:05:01.532Z,38.50
2022-12-27T09:07:35.129Z,42.30
2022-12-27T09:10:08.724Z,40.90
2022-12-27T09:12:41.789Z,40.80
2022-12-27T09:15:14.660Z,43.20
2022-12-27T09:17:47.561Z,41.00
2022-12-27T09:20:20.486Z,41.60
2022-12-27T09:22:53.705Z,35.40
2022-12-27T09:25:26.701Z,38.00
2022-12-27T09:28:00.444Z,38.70
2022-12-27T09:30:33.786Z,36.40
2022-12-27T09:33:06.806Z,36.50
2022-12-27T09:35:40.239Z,37.20
2022-12-27T09:38:13.375Z,37.90
2022-12-27T09:41:37.643Z,40.10
2022-12-27T09:44:32.355Z,46.50
2022-12-27T09:47:24.621Z,44.60
2022-12-27T09:53:02.795Z,38.70
2022-12-27T09:55:55.102Z,35.90
2022-12-27T09:58:37.116Z,39.90
2022-12-27T10:01:34.524Z,37.30
2022-12-27T10:04:12.445Z,38.50
2022-12-27T10:07:07.160Z,36.30
2022-12-27T10:09:56.720Z,39.70
2022-12-27T10:12:40.884Z,36.60
2022-12-27T10:15:37.852Z,39.20
2022-12-27T10:18:31.673Z,40.20
2022-12-27T10:21:18.419Z,37.50
2022-12-27T10:24:19.222Z,37.60
2022-12-27T10:26:54.047Z,40.90
2022-12-27T10:29:28.788Z,39.30
2022-12-27T10:32:01.655Z,44.00
2022-12-27T10:34:34.906Z,45.00
2022-12-27T10:37:09.023Z,43.50
2022-12-27T10:39:42.191Z,46.00
2022-12-27T10:42:32.344Z,46.00
2022-12-27T10:45:28.723Z,42.00
2022-12-27T10:48:25.100Z,41.90
2022-12-27T10:51:13.213Z,41.90
2022-12-27T10:53:51.406Z,45.20
2022-12-27T10:56:32.331Z,52.30
2022-12-27T10:59:17.111Z,58.10
2022-12-27T11:02:11.312Z,55.30
2022-12-27T11:05:00.708Z,47.90
2022-12-27T11:07:37.448Z,49.80
2022-12-27T11:10:23.550Z,48.30
2022-12-27T11:13:08.491Z,42.60
2022-12-27T11:15:45.448Z,43.30
2022-12-27T11:18:22.154Z,45.50
2022-12-27T11:20:59.613Z,43.10
2022-12-27T11:23:44.720Z,41.50
2022-12-27T11:26:31.679Z,42.10
2022-12-27T11:29:06.209Z,42.70
2022-12-27T11:31:48.802Z,39.10
2022-12-27T11:34:25.632Z,37.00
2022-12-27T11:37:11.481Z,38.00
2022-12-27T11:39:54.253Z,38.00
2022-12-27T11:42:43.261Z,34.90
2022-12-27T11:45:23.576Z,38.10
2022-12-27T11:48:16.406Z,39.70
2022-12-27T11:51:07.350Z,34.50
2022-12-27T11:53:58.521Z,36.60
2022-12-27T11:56:34.096Z,37.00
2022-12-27T11:59:36.278Z,43.30
2022-12-27T12:02:33.909Z,41.80
2022-12-27T12:05:40.746Z,41.90
2022-12-27T12:08:34.741Z,43.20
2022-12-27T12:11:20.522Z,42.80
2022-12-27T12:14:26.285Z,49.70
2022-12-27T12:17:18.913Z,47.80
2022-12-27T12:20:20.673Z,51.90
2022-12-27T12:23:19.352Z,45.20
2022-12-27T12:26:15.467Z,41.60
2022-12-27T12:29:19.615Z,43.00
2022-12-27T12:32:17.343Z,40.90
2022-12-27T12:35:04.866Z,39.70
2022-12-27T12:38:04.209Z,40.90
2022-12-27T12:40:49.980Z,53.30
2022-12-27T12:44:00.112Z,48.90
2022-12-27T12:47:02.489Z,45.00
2022-12-27T12:50:13.579Z,44.70
2022-12-27T12:53:03.487Z,45.30
2022-12-27T12:55:58.343Z,38.40
2022-12-27T12:58:33.978Z,35.10
2022-12-27T13:01:45.153Z,33.10
2022-12-27T13:05:15.454Z,36.90
2022-12-27T13:10:59.139Z,35.70
2022-12-27T13:13:53.317Z,38.40
2022-12-27T13:17:07.267Z,37.40
2022-12-27T13:20:00.351Z,36.70
2022-12-27T13:22:50.212Z,38.10
2022-12-27T13:25:33.569Z,38.00
2022-12-27T13:28:31.580Z,39.90
2022-12-27T13:31:29.289Z,38.60
2022-12-27T13:34:16.397Z,37.30
2022-12-27T13:37:02.960Z,39.30
2022-12-27T13:39:40.208Z,36.10
2022-12-27T13:42:38.478Z,36.00
2022-12-27T13:45:52.635Z,34.60
2022-12-27T13:48:52.292Z,38.60
2022-12-27T13:51:45.707Z,34.60
2022-12-27T13:54:24.183Z,35.10
2022-12-27T13:57:24.016Z,34.40
2022-12-27T14:00:17.832Z,37.30
2022-12-27T14:03:30.778Z,38.90
2022-12-27T14:06:43.128Z,35.80
2022-12-27T14:09:50.483Z,39.30
2022-12-27T14:12:40.783Z,32.20
2022-12-27T14:15:19.248Z,45.00
2022-12-27T14:18:29.209Z,38.30
2022-12-27T14:21:23.602Z,57.90
2022-12-27T14:24:06.872Z,21.50
2022-12-27T14:27:12.179Z,40.00
2022-12-27T14:30:02.557Z,34.50
2022-12-27T14:33:02.105Z,37.10
2022-12-27T14:36:14.300Z,44.00
2022-12-27T14:38:49.793Z,28.30
2022-12-27T14:41:38.699Z,45.00
2022-12-27T14:44:41.182Z,27.00
2022-12-27T14:47:28.421Z,23.30
2022-12-27T14:50:21.798Z,18.10
2022-12-27T14:53:23.896Z,14.00
2022-12-27T14:56:18.173Z,13.60
2022-12-27T14:59:08.752Z,17.80
2022-12-27T15:01:53.156Z,18.60
2022-12-27T15:04:47.380Z,16.30
2022-12-27T15:07:25.648Z,17.20
2022-12-27T15:10:27.206Z,21.30
2022-12-27T15:13:37.206Z,18.90
2022-12-27T15:16:27.018Z,19.60
2022-12-27T15:19:17.084Z,18.00
2022-12-27T15:22:07.065Z,20.00
2022-12-27T15:24:58.243Z,23.50
2022-12-27T15:27:45.019Z,20.80
2022-12-27T15:30:23.493Z,22.20
2022-12-27T15:33:24.095Z,20.50
2022-12-27T15:35:58.950Z,17.40
2022-12-27T15:38:55.026Z,10.90
2022-12-27T15:41:48.048Z,16.20
2022-12-27T15:44:25.703Z,13.90
2022-12-27T15:47:37.055Z,16.70
2022-12-27T15:50:27.260Z,17.40
2022-12-27T15:53:21.208Z,16.50
2022-12-27T15:56:20.183Z,16.90
2022-12-27T15:59:28.391Z,16.60
2022-12-27T16:02:36.724Z,12.90
2022-12-27T16:05:23.499Z,13.70
2022-12-27T16:08:02.523Z,16.50
2022-12-27T16:10:35.991Z,16.50
2022-12-27T16:13:14.266Z,7.40
2022-12-27T16:15:50.043Z,13.10
2022-12-27T16:18:25.288Z,12.10
2022-12-27T16:21:19.478Z,10.80
2022-12-27T16:24:01.149Z,8.40
2022-12-27T16:26:38.730Z,10.70
2022-12-27T16:29:18.460Z,9.90
2022-12-27T16:31:53.101Z,7.50
2022-12-27T16:34:34.332Z,8.70
2022-12-27T16:37:07.643Z,7.00
2022-12-27T16:39:56.076Z,8.90
2022-12-27T16:42:56.667Z,7.00
2022-12-27T16:45:40.926Z,6.20
2022-12-27T16:48:27.213Z,7.10
2022-12-27T16:51:05.550Z,9.30
2022-12-27T16:53:58.864Z,4.80
2022-12-27T16:56:34.960Z,8.80
2022-12-27T16:59:45.159Z,6.40
2022-12-27T17:02:35.706Z,6.20
2022-12-27T17:05:17.865Z,5.40
2022-12-27T17:07:56.329Z,7.20
2022-12-27T17:10:35.991Z,5.90
2022-12-27T17:13:31.962Z,6.10
2022-12-27T17:16:22.013Z,5.60
2022-12-27T17:19:02.430Z,4.20
2022-12-27T17:21:40.399Z,6.90
2022-12-27T17:24:24.355Z,5.10
2022-12-27T17:27:17.609Z,7.70
2022-12-27T17:30:09.375Z,7.60
2022-12-27T17:32:47.776Z,6.00
2022-12-27T17:35:38.652Z,6.90
2022-12-27T17:38:30.905Z,7.30
2022-12-27T17:41:41.746Z,7.50
2022-12-27T17:44:41.547Z,9.80
2022-12-27T17:47:19.681Z,9.50
2022-12-27T17:49:54.988Z,8.20
2022-12-27T17:52:47.023Z,6.50
2022-12-27T17:55:41.823Z,12.50
2022-12-27T17:58:17.321Z,9.60
2022-12-27T18:01:00.071Z,7.60
2022-12-27T18:03:44.737Z,8.10
2022-12-27T18:06:21.664Z,6.70
2022-12-27T18:08:55.263Z,7.40
2022-12-27T18:11:37.848Z,5.00
2022-12-27T18:14:17.448Z,7.10
2022-12-27T18:16:51.076Z,7.90
2022-12-27T18:19:23.987Z,5.50
2022-12-27T18:21:59.044Z,3.20
2022-12-27T18:24:36.357Z,6.40
2022-12-27T18:27:19.762Z,7.50
2022-12-27T18:29:53.679Z,4.00
2022-12-27T18:32:28.522Z,6.30
2022-12-27T18:35:05.234Z,7.60
2022-12-27T18:37:41.128Z,5.50
2022-12-27T18:40:23.617Z,6.70
2022-12-27T18:42:57.813Z,8.20
2022-12-27T18:45:33.800Z,9.30
2022-12-27T18:48:16.019Z,8.50
2022-12-27T18:50:55.312Z,7.80
2022-12-27T18:53:40.752Z,7.40
2022-12-27T18:56:19.566Z,9.00
2022-12-27T18:59:26.746Z,6.30
2022-12-27T19:02:05.090Z,9.40
2022-12-27T19:04:38.267Z,12.60
2022-12-27T19:07:14.599Z,8.00
2022-12-27T19:09:56.130Z,9.50
2022-12-27T19:12:35.142Z,7.90
2022-12-27T19:15:41.240Z,8.00
2022-12-27T19:18:29.605Z,7.80
2022-12-27T19:21:04.412Z,11.00
2022-12-27T19:23:43.621Z,11.20
2022-12-27T19:26:18.940Z,10.50
2022-12-27T19:29:04.845Z,7.40
2022-12-27T19:31:45.113Z,11.80
2022-12-27T19:34:21.493Z,8.90
2022-12-27T19:36:55.620Z,7.90
2022-12-27T19:39:37.126Z,7.70
2022-12-27T19:42:15.587Z,9.70
2022-12-27T19:44:48.637Z,8.10
2022-12-27T19:47:21.412Z,7.90
2022-12-27T19:49:54.284Z,9.20
2022-12-27T19:52:28.460Z,6.90
2022-12-27T19:55:09.825Z,9.20
2022-12-27T19:57:44.488Z,8.40
2022-12-27T20:00:23.598Z,8.20
2022-12-27T20:02:56.461Z,12.40
2022-12-27T20:06:12.948Z,7.10
2022-12-27T20:08:38.744Z,8.50
2022-12-27T20:11:19.668Z,7.80
2022-12-27T20:13:53.288Z,11.30
2022-12-27T20:16:26.740Z,4.50
2022-12-27T20:18:59.583Z,8.60
2022-12-27T20:21:32.252Z,6.30
2022-12-27T20:24:05.482Z,11.00
2022-12-27T20:26:38.194Z,4.60
2022-12-27T20:29:11.787Z,8.20
2022-12-27T20:31:46.582Z,10.20
2022-12-27T20:34:20.265Z,7.50
2022-12-27T20:36:55.645Z,7.70
2022-12-27T20:39:29.416Z,11.00
2022-12-27T20:42:02.842Z,10.70
2022-12-27T20:44:35.700Z,8.00
2022-12-27T20:47:08.890Z,9.80
2022-12-27T20:49:43.127Z,11.70
2022-12-27T20:52:16.105Z,9.50
2022-12-27T20:54:49.548Z,9.30
2022-12-27T20:57:22.275Z,7.80
2022-12-27T20:59:55.241Z,10.20
2022-12-27T21:02:27.931Z,9.50
2022-12-27T21:05:00.716Z,6.20
2022-12-27T21:07:33.539Z,11.90
2022-12-27T21:12:57.033Z,7.50
2022-12-27T21:15:31.241Z,10.10
2022-12-27T21:18:04.496Z,8.50
2022-12-27T21:20:37.471Z,11.20
2022-12-27T21:23:09.815Z,11.50
2022-12-27T21:25:42.688Z,7.60
2022-12-27T21:28:15.477Z,10.10
2022-12-27T21:30:59.327Z,10.00
2022-12-27T21:33:32.766Z,10.10
2022-12-27T21:36:07.997Z,11.10
2022-12-27T21:38:41.068Z,11.00
2022-12-27T21:41:28.423Z,11.40
2022-12-27T21:44:01.441Z,8.50
2022-12-27T21:46:36.590Z,9.30
2022-12-27T21:49:12.857Z,6.60
2022-12-27T21:51:46.615Z,9.50
2022-12-27T21:54:39.268Z,10.30
2022-12-27T21:57:12.170Z,10.10
2022-12-27T21:59:45.272Z,9.10
2022-12-27T22:02:19.230Z,7.80
2022-12-27T22:04:52.359Z,10.60
2022-12-27T22:07:25.462Z,6.70
2022-12-27T22:09:59.274Z,9.30
2022-12-27T22:12:31.966Z,11.80
2022-12-27T22:15:04.861Z,7.40
2022-12-27T22:17:37.574Z,9.20
2022-12-27T22:20:10.597Z,8.30
2022-12-27T22:22:43.663Z,10.50
2022-12-27T22:25:16.172Z,6.50
2022-12-27T22:27:49.066Z,8.00
2022-12-27T22:30:22.181Z,10.40
2022-12-27T22:32:56.319Z,13.90
2022-12-27T22:35:29.372Z,8.20
2022-12-27T22:38:02.527Z,8.20
2022-12-27T22:40:45.834Z,8.10
2022-12-27T22:43:21.089Z,11.50
2022-12-27T22:45:54.137Z,10.20
2022-12-27T22:48:26.972Z,10.00
2022-12-27T22:50:59.861Z,11.30
2022-12-27T22:53:33.249Z,10.30
2022-12-27T22:56:06.113Z,7.70
2022-12-27T22:58:39.336Z,11.50
2022-12-27T23:01:22.960Z,11.10
2022-12-27T23:03:57.074Z,8.90
2022-12-27T23:06:31.246Z,8.90
2022-12-27T23:09:08.505Z,7.00
2022-12-27T23:11:46.377Z,11.30
2022-12-27T23:14:19.714Z,9.40
2022-12-27T23:16:52.866Z,7.90
2022-12-27T23:19:26.395Z,9.00
2022-12-27T23:22:00.017Z,8.60
2022-12-27T23:24:33.187Z,8.60
2022-12-27T23:27:05.851Z,8.00
2022-12-27T23:29:38.404Z,7.80
2022-12-27T23:32:11.095Z,8.80
2022-12-27T23:34:43.603Z,9.60
2022-12-27T23:37:16.313Z,4.90
2022-12-27T23:39:49.017Z,6.20
2022-12-27T23:42:21.506Z,7.20
2022-12-27T23:44:54.269Z,8.90
2022-12-27T23:47:27.032Z,11.90
2022-12-27T23:49:59.791Z,10.00
2022-12-27T23:52:32.306Z,9.30
2022-12-27T23:55:05.390Z,14.00
2022-12-27T23:57:37.828Z,14.70
